sensor_id;sensor_type;location;lat;lon;timestamp;P1;durP1;ratioP1;P2;durP2;ratioP2
7031;SDS011;3557;48.880;8.328;2023-09-07T00:01:21;6.00;;;2.90;;
7031;SDS011;3557;48.880;8.328;2023-09-07T00:03:49;5.30;;;2.90;;
7031;SDS011;3557;48.880;8.328;2023-09-07T00:06:16;6.10;;;3.08;;
7031;SDS011;3557;48.880;8.328;2023-09-07T00:08:43;4.07;;;2.80;;
7031;SDS011;3557;48.880;8.328;2023-09-07T00:11:11;3.05;;;2.72;;
7031;SDS011;3557;48.880;8.328;2023-09-07T00:13:40;4.07;;;2.60;;
7031;SDS011;3557;48.880;8.328;2023-09-07T00:16:07;3.35;;;2.65;;
7031;SDS011;3557;48.880;8.328;2023-09-07T00:18:34;8.35;;;2.70;;
7031;SDS011;3557;48.880;8.328;2023-09-07T00:21:03;3.70;;;2.40;;
7031;SDS011;3557;48.880;8.328;2023-09-07T00:23:30;4.13;;;2.58;;
7031;SDS011;3557;48.880;8.328;2023-09-07T00:25:58;4.30;;;2.50;;
7031;SDS011;3557;48.880;8.328;2023-09-07T00:28:25;4.65;;;2.55;;
7031;SDS011;3557;48.880;8.328;2023-09-07T00:30:53;2.97;;;2.53;;
7031;SDS011;3557;48.880;8.328;2023-09-07T00:33:21;6.68;;;3.00;;
7031;SDS011;3557;48.880;8.328;2023-09-07T00:35:48;3.13;;;2.78;;
7031;SDS011;3557;48.880;8.328;2023-09-07T00:38:15;2.90;;;2.70;;
7031;SDS011;3557;48.880;8.328;2023-09-07T00:40:43;2.78;;;2.58;;
7031;SDS011;3557;48.880;8.328;2023-09-07T00:43:11;3.42;;;3.03;;
7031;SDS011;3557;48.880;8.328;2023-09-07T00:45:38;4.90;;;2.80;;
7031;SDS011;3557;48.880;8.328;2023-09-07T00:48:08;5.55;;;2.63;;
7031;SDS011;3557;48.880;8.328;2023-09-07T00:50:35;3.38;;;3.00;;
7031;SDS011;3557;48.880;8.328;2023-09-07T00:53:03;3.40;;;2.83;;
7031;SDS011;3557;48.880;8.328;2023-09-07T00:55:32;3.58;;;2.70;;
7031;SDS011;3557;48.880;8.328;2023-09-07T00:58:00;3.22;;;2.80;;
7031;SDS011;3557;48.880;8.328;2023-09-07T01:00:28;3.15;;;2.80;;
7031;SDS011;3557;48.880;8.328;2023-09-07T01:02:56;2.90;;;2.60;;
7031;SDS011;3557;48.880;8.328;2023-09-07T01:05:27;3.67;;;2.90;;
7031;SDS011;3557;48.880;8.328;2023-09-07T01:08:00;3.83;;;3.00;;
7031;SDS011;3557;48.880;8.328;2023-09-07T01:10:36;4.30;;;3.13;;
7031;SDS011;3557;48.880;8.328;2023-09-07T01:13:04;4.53;;;2.85;;
7031;SDS011;3557;48.880;8.328;2023-09-07T01:15:31;3.70;;;2.95;;
7031;SDS011;3557;48.880;8.328;2023-09-07T01:17:59;6.43;;;3.20;;
7031;SDS011;3557;48.880;8.328;2023-09-07T01:20:28;5.25;;;2.90;;
7031;SDS011;3557;48.880;8.328;2023-09-07T01:22:57;3.63;;;2.90;;
7031;SDS011;3557;48.880;8.328;2023-09-07T01:25:25;3.92;;;2.90;;
7031;SDS011;3557;48.880;8.328;2023-09-07T01:27:53;3.33;;;3.03;;
7031;SDS011;3557;48.880;8.328;2023-09-07T01:30:21;4.85;;;3.03;;
7031;SDS011;3557;48.880;8.328;2023-09-07T01:32:48;3.10;;;2.80;;
7031;SDS011;3557;48.880;8.328;2023-09-07T01:35:16;3.55;;;2.70;;
7031;SDS011;3557;48.880;8.328;2023-09-07T01:37:43;3.88;;;2.90;;
7031;SDS011;3557;48.880;8.328;2023-09-07T01:40:12;4.10;;;3.20;;
7031;SDS011;3557;48.880;8.328;2023-09-07T01:42:40;3.88;;;2.90;;
7031;SDS011;3557;48.880;8.328;2023-09-07T01:45:08;5.00;;;2.80;;
7031;SDS011;3557;48.880;8.328;2023-09-07T01:47:36;3.00;;;2.70;;
7031;SDS011;3557;48.880;8.328;2023-09-07T01:50:04;8.65;;;2.92;;
7031;SDS011;3557;48.880;8.328;2023-09-07T01:52:32;10.50;;;3.08;;
7031;SDS011;3557;48.880;8.328;2023-09-07T01:54:59;6.43;;;3.00;;
7031;SDS011;3557;48.880;8.328;2023-09-07T01:57:29;3.65;;;2.97;;
7031;SDS011;3557;48.880;8.328;2023-09-07T01:59:57;3.80;;;2.65;;
7031;SDS011;3557;48.880;8.328;2023-09-07T02:02:25;3.80;;;2.75;;
7031;SDS011;3557;48.880;8.328;2023-09-07T02:04:52;8.27;;;2.90;;
7031;SDS011;3557;48.880;8.328;2023-09-07T02:07:19;4.78;;;2.97;;
7031;SDS011;3557;48.880;8.328;2023-09-07T02:09:47;2.80;;;2.55;;
7031;SDS011;3557;48.880;8.328;2023-09-07T02:12:14;2.92;;;2.72;;
7031;SDS011;3557;48.880;8.328;2023-09-07T02:14:43;5.00;;;2.85;;
7031;SDS011;3557;48.880;8.328;2023-09-07T02:17:10;3.58;;;2.90;;
7031;SDS011;3557;48.880;8.328;2023-09-07T02:19:43;3.05;;;2.60;;
7031;SDS011;3557;48.880;8.328;2023-09-07T02:22:10;3.20;;;2.88;;
7031;SDS011;3557;48.880;8.328;2023-09-07T02:24:38;3.75;;;2.80;;
7031;SDS011;3557;48.880;8.328;2023-09-07T02:27:05;3.40;;;3.05;;
7031;SDS011;3557;48.880;8.328;2023-09-07T02:29:32;4.07;;;3.67;;
7031;SDS011;3557;48.880;8.328;2023-09-07T02:32:01;4.85;;;3.08;;
7031;SDS011;3557;48.880;8.328;2023-09-07T02:34:29;3.22;;;2.92;;
7031;SDS011;3557;48.880;8.328;2023-09-07T02:36:57;3.83;;;3.00;;
7031;SDS011;3557;48.880;8.328;2023-09-07T02:39:25;3.20;;;2.90;;
7031;SDS011;3557;48.880;8.328;2023-09-07T02:41:52;4.57;;;2.85;;
7031;SDS011;3557;48.880;8.328;2023-09-07T02:44:19;6.03;;;3.13;;
7031;SDS011;3557;48.880;8.328;2023-09-07T02:46:47;5.22;;;3.03;;
7031;SDS011;3557;48.880;8.328;2023-09-07T02:49:16;3.28;;;2.78;;
7031;SDS011;3557;48.880;8.328;2023-09-07T02:51:44;4.63;;;3.00;;
7031;SDS011;3557;48.880;8.328;2023-09-07T02:54:11;4.25;;;2.70;;
7031;SDS011;3557;48.880;8.328;2023-09-07T02:56:39;5.95;;;3.13;;
7031;SDS011;3557;48.880;8.328;2023-09-07T02:59:06;2.95;;;2.75;;
7031;SDS011;3557;48.880;8.328;2023-09-07T03:01:33;4.68;;;2.70;;
7031;SDS011;3557;48.880;8.328;2023-09-07T03:04:01;2.97;;;2.72;;
7031;SDS011;3557;48.880;8.328;2023-09-07T03:06:30;5.63;;;2.97;;
7031;SDS011;3557;48.880;8.328;2023-09-07T03:08:58;3.72;;;3.10;;
7031;SDS011;3557;48.880;8.328;2023-09-07T03:11:25;4.18;;;3.05;;
7031;SDS011;3557;48.880;8.328;2023-09-07T03:13:59;4.95;;;3.30;;
7031;SDS011;3557;48.880;8.328;2023-09-07T03:16:27;6.20;;;3.17;;
7031;SDS011;3557;48.880;8.328;2023-09-07T03:18:55;3.53;;;3.22;;
7031;SDS011;3557;48.880;8.328;2023-09-07T03:21:23;6.38;;;3.10;;
7031;SDS011;3557;48.880;8.328;2023-09-07T03:23:56;3.72;;;3.40;;
7031;SDS011;3557;48.880;8.328;2023-09-07T03:26:23;3.70;;;2.90;;
7031;SDS011;3557;48.880;8.328;2023-09-07T03:28:51;2.85;;;2.65;;
7031;SDS011;3557;48.880;8.328;2023-09-07T03:31:19;4.13;;;3.45;;
7031;SDS011;3557;48.880;8.328;2023-09-07T03:33:46;4.60;;;4.20;;
7031;SDS011;3557;48.880;8.328;2023-09-07T03:36:15;4.25;;;3.90;;
7031;SDS011;3557;48.880;8.328;2023-09-07T03:38:42;4.05;;;3.53;;
7031;SDS011;3557;48.880;8.328;2023-09-07T03:41:13;4.28;;;3.50;;
7031;SDS011;3557;48.880;8.328;2023-09-07T03:43:41;5.22;;;3.80;;
7031;SDS011;3557;48.880;8.328;2023-09-07T03:46:08;4.60;;;3.85;;
7031;SDS011;3557;48.880;8.328;2023-09-07T03:48:36;4.55;;;3.47;;
7031;SDS011;3557;48.880;8.328;2023-09-07T03:51:04;4.15;;;3.78;;
7031;SDS011;3557;48.880;8.328;2023-09-07T03:53:32;4.25;;;3.67;;
7031;SDS011;3557;48.880;8.328;2023-09-07T03:56:01;5.03;;;3.38;;
7031;SDS011;3557;48.880;8.328;2023-09-07T03:58:32;3.33;;;2.97;;
7031;SDS011;3557;48.880;8.328;2023-09-07T04:00:59;4.22;;;3.08;;
7031;SDS011;3557;48.880;8.328;2023-09-07T04:03:28;4.45;;;3.17;;
7031;SDS011;3557;48.880;8.328;2023-09-07T04:05:55;4.10;;;3.80;;
7031;SDS011;3557;48.880;8.328;2023-09-07T04:08:23;4.55;;;3.78;;
7031;SDS011;3557;48.880;8.328;2023-09-07T04:10:50;3.88;;;3.47;;
7031;SDS011;3557;48.880;8.328;2023-09-07T04:13:17;5.93;;;3.60;;
7031;SDS011;3557;48.880;8.328;2023-09-07T04:15:46;8.77;;;4.00;;
7031;SDS011;3557;48.880;8.328;2023-09-07T04:18:15;4.22;;;3.90;;
7031;SDS011;3557;48.880;8.328;2023-09-07T04:20:43;4.43;;;3.83;;
7031;SDS011;3557;48.880;8.328;2023-09-07T04:23:11;4.25;;;3.58;;
7031;SDS011;3557;48.880;8.328;2023-09-07T04:25:39;3.70;;;3.40;;
7031;SDS011;3557;48.880;8.328;2023-09-07T04:28:07;3.90;;;3.50;;
7031;SDS011;3557;48.880;8.328;2023-09-07T04:30:36;4.10;;;3.67;;
7031;SDS011;3557;48.880;8.328;2023-09-07T04:33:06;4.10;;;3.78;;
7031;SDS011;3557;48.880;8.328;2023-09-07T04:35:35;4.18;;;3.78;;
7031;SDS011;3557;48.880;8.328;2023-09-07T04:38:02;5.65;;;3.63;;
7031;SDS011;3557;48.880;8.328;2023-09-07T04:40:30;4.15;;;3.53;;
7031;SDS011;3557;48.880;8.328;2023-09-07T04:42:58;7.30;;;4.00;;
7031;SDS011;3557;48.880;8.328;2023-09-07T04:45:26;4.53;;;3.30;;
7031;SDS011;3557;48.880;8.328;2023-09-07T04:47:53;4.80;;;3.40;;
7031;SDS011;3557;48.880;8.328;2023-09-07T04:50:21;5.07;;;3.22;;
7031;SDS011;3557;48.880;8.328;2023-09-07T04:52:49;3.63;;;3.33;;
7031;SDS011;3557;48.880;8.328;2023-09-07T04:55:16;11.55;;;3.55;;
7031;SDS011;3557;48.880;8.328;2023-09-07T04:57:44;4.47;;;3.25;;
7031;SDS011;3557;48.880;8.328;2023-09-07T05:00:11;7.38;;;3.20;;
7031;SDS011;3557;48.880;8.328;2023-09-07T05:02:39;3.63;;;3.33;;
7031;SDS011;3557;48.880;8.328;2023-09-07T05:05:08;7.95;;;3.83;;
7031;SDS011;3557;48.880;8.328;2023-09-07T05:07:37;4.43;;;3.30;;
7031;SDS011;3557;48.880;8.328;2023-09-07T05:10:06;4.45;;;3.35;;
7031;SDS011;3557;48.880;8.328;2023-09-07T05:12:37;3.83;;;3.33;;
7031;SDS011;3557;48.880;8.328;2023-09-07T05:15:05;12.15;;;3.45;;
7031;SDS011;3557;48.880;8.328;2023-09-07T05:17:33;3.47;;;3.17;;
7031;SDS011;3557;48.880;8.328;2023-09-07T05:20:01;3.50;;;3.17;;
7031;SDS011;3557;48.880;8.328;2023-09-07T05:22:29;4.18;;;3.13;;
7031;SDS011;3557;48.880;8.328;2023-09-07T05:25:01;5.97;;;3.28;;
7031;SDS011;3557;48.880;8.328;2023-09-07T05:27:28;5.43;;;3.45;;
7031;SDS011;3557;48.880;8.328;2023-09-07T05:29:55;4.20;;;3.42;;
7031;SDS011;3557;48.880;8.328;2023-09-07T05:32:23;5.60;;;3.30;;
7031;SDS011;3557;48.880;8.328;2023-09-07T05:34:51;7.13;;;3.33;;
7031;SDS011;3557;48.880;8.328;2023-09-07T05:37:18;4.75;;;3.33;;
7031;SDS011;3557;48.880;8.328;2023-09-07T05:39:45;6.15;;;3.85;;
7031;SDS011;3557;48.880;8.328;2023-09-07T05:42:15;4.47;;;3.33;;
7031;SDS011;3557;48.880;8.328;2023-09-07T05:44:43;5.72;;;3.60;;
7031;SDS011;3557;48.880;8.328;2023-09-07T05:47:11;4.47;;;4.07;;
7031;SDS011;3557;48.880;8.328;2023-09-07T05:49:39;4.68;;;3.50;;
7031;SDS011;3557;48.880;8.328;2023-09-07T05:52:07;3.45;;;3.13;;
7031;SDS011;3557;48.880;8.328;2023-09-07T05:54:34;5.22;;;3.38;;
7031;SDS011;3557;48.880;8.328;2023-09-07T05:57:01;3.63;;;2.95;;
7031;SDS011;3557;48.880;8.328;2023-09-07T05:59:30;4.43;;;3.30;;
7031;SDS011;3557;48.880;8.328;2023-09-07T06:01:58;8.75;;;3.25;;
7031;SDS011;3557;48.880;8.328;2023-09-07T06:04:26;3.88;;;3.22;;
7031;SDS011;3557;48.880;8.328;2023-09-07T06:06:53;6.22;;;3.40;;
7031;SDS011;3557;48.880;8.328;2023-09-07T06:09:21;5.47;;;3.28;;
7031;SDS011;3557;48.880;8.328;2023-09-07T06:11:48;3.45;;;3.10;;
7031;SDS011;3557;48.880;8.328;2023-09-07T06:14:16;5.53;;;2.90;;
7031;SDS011;3557;48.880;8.328;2023-09-07T06:16:45;4.85;;;2.80;;
7031;SDS011;3557;48.880;8.328;2023-09-07T06:19:12;5.07;;;3.08;;
7031;SDS011;3557;48.880;8.328;2023-09-07T06:21:40;4.43;;;3.00;;
7031;SDS011;3557;48.880;8.328;2023-09-07T06:24:07;4.78;;;2.92;;
7031;SDS011;3557;48.880;8.328;2023-09-07T06:26:35;4.28;;;2.78;;
7031;SDS011;3557;48.880;8.328;2023-09-07T06:29:04;5.65;;;2.97;;
7031;SDS011;3557;48.880;8.328;2023-09-07T06:31:32;13.90;;;3.22;;
7031;SDS011;3557;48.880;8.328;2023-09-07T06:34:01;4.40;;;3.00;;
7031;SDS011;3557;48.880;8.328;2023-09-07T06:36:29;4.97;;;3.08;;
7031;SDS011;3557;48.880;8.328;2023-09-07T06:38:57;5.05;;;2.83;;
7031;SDS011;3557;48.880;8.328;2023-09-07T06:41:24;5.90;;;3.20;;
7031;SDS011;3557;48.880;8.328;2023-09-07T06:43:51;9.25;;;2.90;;
7031;SDS011;3557;48.880;8.328;2023-09-07T06:46:19;5.60;;;3.25;;
7031;SDS011;3557;48.880;8.328;2023-09-07T06:48:46;5.68;;;3.13;;
7031;SDS011;3557;48.880;8.328;2023-09-07T06:51:15;3.08;;;2.78;;
7031;SDS011;3557;48.880;8.328;2023-09-07T06:53:43;3.25;;;2.60;;
7031;SDS011;3557;48.880;8.328;2023-09-07T06:56:10;5.28;;;2.90;;
7031;SDS011;3557;48.880;8.328;2023-09-07T06:58:37;4.72;;;2.75;;
7031;SDS011;3557;48.880;8.328;2023-09-07T07:01:05;6.40;;;2.85;;
7031;SDS011;3557;48.880;8.328;2023-09-07T07:03:33;4.40;;;2.80;;
7031;SDS011;3557;48.880;8.328;2023-09-07T07:06:00;3.80;;;2.75;;
7031;SDS011;3557;48.880;8.328;2023-09-07T07:08:29;5.22;;;3.15;;
7031;SDS011;3557;48.880;8.328;2023-09-07T07:10:57;5.93;;;2.88;;
7031;SDS011;3557;48.880;8.328;2023-09-07T07:13:24;3.15;;;2.85;;
7031;SDS011;3557;48.880;8.328;2023-09-07T07:15:52;5.60;;;2.53;;
7031;SDS011;3557;48.880;8.328;2023-09-07T07:18:20;3.80;;;2.75;;
7031;SDS011;3557;48.880;8.328;2023-09-07T07:20:48;3.95;;;2.78;;
7031;SDS011;3557;48.880;8.328;2023-09-07T07:23:17;3.83;;;2.72;;
7031;SDS011;3557;48.880;8.328;2023-09-07T07:25:45;3.45;;;3.15;;
7031;SDS011;3557;48.880;8.328;2023-09-07T07:28:13;4.22;;;2.90;;
7031;SDS011;3557;48.880;8.328;2023-09-07T07:30:41;4.65;;;3.03;;
7031;SDS011;3557;48.880;8.328;2023-09-07T07:33:09;11.15;;;2.90;;
7031;SDS011;3557;48.880;8.328;2023-09-07T07:35:38;5.18;;;2.70;;
7031;SDS011;3557;48.880;8.328;2023-09-07T07:38:06;4.55;;;3.10;;
7031;SDS011;3557;48.880;8.328;2023-09-07T07:40:35;4.22;;;2.88;;
7031;SDS011;3557;48.880;8.328;2023-09-07T07:43:04;3.72;;;2.70;;
7031;SDS011;3557;48.880;8.328;2023-09-07T07:45:33;7.28;;;3.00;;
7031;SDS011;3557;48.880;8.328;2023-09-07T07:48:02;4.57;;;2.90;;
7031;SDS011;3557;48.880;8.328;2023-09-07T07:50:36;3.30;;;2.85;;
7031;SDS011;3557;48.880;8.328;2023-09-07T07:53:06;12.43;;;3.35;;
7031;SDS011;3557;48.880;8.328;2023-09-07T07:55:35;3.88;;;3.08;;
7031;SDS011;3557;48.880;8.328;2023-09-07T07:58:06;4.15;;;2.80;;
7031;SDS011;3557;48.880;8.328;2023-09-07T08:00:34;3.70;;;3.08;;
7031;SDS011;3557;48.880;8.328;2023-09-07T08:03:02;3.25;;;2.75;;
7031;SDS011;3557;48.880;8.328;2023-09-07T08:05:31;3.90;;;2.97;;
7031;SDS011;3557;48.880;8.328;2023-09-07T08:07:59;3.72;;;2.70;;
7031;SDS011;3557;48.880;8.328;2023-09-07T08:10:28;3.78;;;2.90;;
7031;SDS011;3557;48.880;8.328;2023-09-07T08:12:56;6.70;;;2.97;;
7031;SDS011;3557;48.880;8.328;2023-09-07T08:15:25;4.55;;;2.80;;
7031;SDS011;3557;48.880;8.328;2023-09-07T08:17:53;4.15;;;3.13;;
7031;SDS011;3557;48.880;8.328;2023-09-07T08:20:20;5.80;;;2.78;;
7031;SDS011;3557;48.880;8.328;2023-09-07T08:22:48;4.78;;;2.72;;
7031;SDS011;3557;48.880;8.328;2023-09-07T08:25:17;4.93;;;3.05;;
7031;SDS011;3557;48.880;8.328;2023-09-07T08:27:46;5.57;;;2.97;;
7031;SDS011;3557;48.880;8.328;2023-09-07T08:30:15;6.82;;;2.90;;
7031;SDS011;3557;48.880;8.328;2023-09-07T08:32:45;4.28;;;3.10;;
7031;SDS011;3557;48.880;8.328;2023-09-07T08:35:12;5.30;;;3.47;;
7031;SDS011;3557;48.880;8.328;2023-09-07T08:37:42;6.97;;;3.22;;
7031;SDS011;3557;48.880;8.328;2023-09-07T08:40:09;6.78;;;2.75;;
7031;SDS011;3557;48.880;8.328;2023-09-07T08:42:37;4.80;;;3.00;;
7031;SDS011;3557;48.880;8.328;2023-09-07T08:45:05;4.20;;;2.88;;
7031;SDS011;3557;48.880;8.328;2023-09-07T08:47:35;5.05;;;2.78;;
7031;SDS011;3557;48.880;8.328;2023-09-07T08:50:05;7.57;;;2.67;;
7031;SDS011;3557;48.880;8.328;2023-09-07T08:52:33;6.40;;;2.90;;
7031;SDS011;3557;48.880;8.328;2023-09-07T08:55:01;8.95;;;2.60;;
7031;SDS011;3557;48.880;8.328;2023-09-07T08:57:29;5.13;;;2.78;;
7031;SDS011;3557;48.880;8.328;2023-09-07T08:59:57;4.38;;;2.58;;
7031;SDS011;3557;48.880;8.328;2023-09-07T09:02:25;4.90;;;2.95;;
7031;SDS011;3557;48.880;8.328;2023-09-07T09:04:52;5.05;;;2.45;;
7031;SDS011;3557;48.880;8.328;2023-09-07T09:07:21;7.32;;;2.65;;
7031;SDS011;3557;48.880;8.328;2023-09-07T09:09:48;4.35;;;2.63;;
7031;SDS011;3557;48.880;8.328;2023-09-07T09:12:16;4.93;;;2.60;;
7031;SDS011;3557;48.880;8.328;2023-09-07T09:14:43;4.15;;;2.33;;
7031;SDS011;3557;48.880;8.328;2023-09-07T09:17:11;3.17;;;2.80;;
7031;SDS011;3557;48.880;8.328;2023-09-07T09:19:40;4.75;;;2.70;;
7031;SDS011;3557;48.880;8.328;2023-09-07T09:22:07;3.70;;;2.60;;
7031;SDS011;3557;48.880;8.328;2023-09-07T09:24:36;3.70;;;2.67;;
7031;SDS011;3557;48.880;8.328;2023-09-07T09:27:04;7.80;;;2.60;;
7031;SDS011;3557;48.880;8.328;2023-09-07T09:29:32;5.20;;;2.55;;
7031;SDS011;3557;48.880;8.328;2023-09-07T09:32:00;4.70;;;2.80;;
7031;SDS011;3557;48.880;8.328;2023-09-07T09:34:31;3.78;;;2.50;;
7031;SDS011;3557;48.880;8.328;2023-09-07T09:37:00;5.43;;;2.72;;
7031;SDS011;3557;48.880;8.328;2023-09-07T09:39:28;5.88;;;2.90;;
7031;SDS011;3557;48.880;8.328;2023-09-07T09:41:57;3.10;;;2.80;;
7031;SDS011;3557;48.880;8.328;2023-09-07T09:44:25;4.07;;;2.80;;
7031;SDS011;3557;48.880;8.328;2023-09-07T09:46:53;3.67;;;2.70;;
7031;SDS011;3557;48.880;8.328;2023-09-07T09:49:21;3.95;;;2.85;;
7031;SDS011;3557;48.880;8.328;2023-09-07T09:51:51;5.15;;;2.72;;
7031;SDS011;3557;48.880;8.328;2023-09-07T09:54:18;6.57;;;2.85;;
7031;SDS011;3557;48.880;8.328;2023-09-07T09:56:47;3.50;;;2.45;;
7031;SDS011;3557;48.880;8.328;2023-09-07T09:59:15;3.72;;;2.70;;
7031;SDS011;3557;48.880;8.328;2023-09-07T10:01:44;4.30;;;3.08;;
7031;SDS011;3557;48.880;8.328;2023-09-07T10:04:16;4.20;;;2.90;;
7031;SDS011;3557;48.880;8.328;2023-09-07T10:06:55;4.25;;;2.92;;
7031;SDS011;3557;48.880;8.328;2023-09-07T10:09:29;6.07;;;3.00;;
7031;SDS011;3557;48.880;8.328;2023-09-07T10:11:57;5.82;;;3.10;;
7031;SDS011;3557;48.880;8.328;2023-09-07T10:14:37;5.72;;;2.83;;
7031;SDS011;3557;48.880;8.328;2023-09-07T10:17:05;7.82;;;3.03;;
7031;SDS011;3557;48.880;8.328;2023-09-07T10:19:34;7.10;;;3.08;;
7031;SDS011;3557;48.880;8.328;2023-09-07T10:22:05;7.78;;;3.05;;
7031;SDS011;3557;48.880;8.328;2023-09-07T10:24:32;6.28;;;2.72;;
7031;SDS011;3557;48.880;8.328;2023-09-07T10:27:01;5.28;;;3.28;;
7031;SDS011;3557;48.880;8.328;2023-09-07T10:29:41;13.27;;;3.20;;
7031;SDS011;3557;48.880;8.328;2023-09-07T10:32:09;5.22;;;2.97;;
7031;SDS011;3557;48.880;8.328;2023-09-07T10:34:38;3.45;;;2.92;;
7031;SDS011;3557;48.880;8.328;2023-09-07T10:37:08;4.68;;;2.80;;
7031;SDS011;3557;48.880;8.328;2023-09-07T10:39:38;4.63;;;2.65;;
7031;SDS011;3557;48.880;8.328;2023-09-07T10:42:08;5.95;;;3.20;;
7031;SDS011;3557;48.880;8.328;2023-09-07T10:44:46;7.03;;;2.90;;
7031;SDS011;3557;48.880;8.328;2023-09-07T10:47:13;5.20;;;2.95;;
7031;SDS011;3557;48.880;8.328;2023-09-07T10:49:40;7.50;;;3.05;;
7031;SDS011;3557;48.880;8.328;2023-09-07T10:52:08;5.97;;;2.90;;
7031;SDS011;3557;48.880;8.328;2023-09-07T10:54:35;3.80;;;2.95;;
7031;SDS011;3557;48.880;8.328;2023-09-07T10:57:07;4.88;;;3.00;;
7031;SDS011;3557;48.880;8.328;2023-09-07T10:59:35;4.93;;;3.10;;
7031;SDS011;3557;48.880;8.328;2023-09-07T11:02:04;4.32;;;3.20;;
7031;SDS011;3557;48.880;8.328;2023-09-07T11:04:32;4.75;;;3.28;;
7031;SDS011;3557;48.880;8.328;2023-09-07T11:06:59;4.72;;;2.92;;
7031;SDS011;3557;48.880;8.328;2023-09-07T11:09:29;3.63;;;3.30;;
7031;SDS011;3557;48.880;8.328;2023-09-07T11:11:57;4.55;;;3.13;;
7031;SDS011;3557;48.880;8.328;2023-09-07T11:14:29;13.70;;;3.70;;
7031;SDS011;3557;48.880;8.328;2023-09-07T11:16:57;5.40;;;3.70;;
7031;SDS011;3557;48.880;8.328;2023-09-07T11:19:25;5.45;;;3.40;;
7031;SDS011;3557;48.880;8.328;2023-09-07T11:21:53;6.10;;;3.50;;
7031;SDS011;3557;48.880;8.328;2023-09-07T11:24:20;7.35;;;3.40;;
7031;SDS011;3557;48.880;8.328;2023-09-07T11:26:48;5.18;;;3.42;;
7031;SDS011;3557;48.880;8.328;2023-09-07T11:29:15;4.70;;;3.42;;
7031;SDS011;3557;48.880;8.328;2023-09-07T11:31:43;6.30;;;3.33;;
7031;SDS011;3557;48.880;8.328;2023-09-07T11:34:11;5.47;;;3.22;;
7031;SDS011;3557;48.880;8.328;2023-09-07T11:36:41;5.13;;;3.65;;
7031;SDS011;3557;48.880;8.328;2023-09-07T11:39:09;6.22;;;3.30;;
7031;SDS011;3557;48.880;8.328;2023-09-07T11:41:38;5.30;;;3.30;;
7031;SDS011;3557;48.880;8.328;2023-09-07T11:44:06;4.32;;;3.45;;
7031;SDS011;3557;48.880;8.328;2023-09-07T11:46:33;5.80;;;3.42;;
7031;SDS011;3557;48.880;8.328;2023-09-07T11:49:01;5.20;;;3.25;;
7031;SDS011;3557;48.880;8.328;2023-09-07T11:51:29;6.63;;;3.60;;
7031;SDS011;3557;48.880;8.328;2023-09-07T11:53:58;6.13;;;3.50;;
7031;SDS011;3557;48.880;8.328;2023-09-07T11:56:27;4.72;;;3.42;;
7031;SDS011;3557;48.880;8.328;2023-09-07T11:58:54;6.13;;;3.30;;
7031;SDS011;3557;48.880;8.328;2023-09-07T12:01:22;5.60;;;3.40;;
7031;SDS011;3557;48.880;8.328;2023-09-07T12:03:49;6.65;;;3.58;;
7031;SDS011;3557;48.880;8.328;2023-09-07T12:06:16;4.93;;;3.50;;
7031;SDS011;3557;48.880;8.328;2023-09-07T12:08:58;8.60;;;3.78;;
7031;SDS011;3557;48.880;8.328;2023-09-07T12:11:26;7.55;;;3.40;;
7031;SDS011;3557;48.880;8.328;2023-09-07T12:13:53;3.55;;;3.20;;
7031;SDS011;3557;48.880;8.328;2023-09-07T12:16:21;5.53;;;3.58;;
7031;SDS011;3557;48.880;8.328;2023-09-07T12:18:49;3.78;;;3.38;;
7031;SDS011;3557;48.880;8.328;2023-09-07T12:21:16;4.55;;;3.15;;
7031;SDS011;3557;48.880;8.328;2023-09-07T12:23:43;8.43;;;3.53;;
7031;SDS011;3557;48.880;8.328;2023-09-07T12:26:12;5.97;;;3.50;;
7031;SDS011;3557;48.880;8.328;2023-09-07T12:28:41;5.20;;;3.20;;
7031;SDS011;3557;48.880;8.328;2023-09-07T12:31:09;3.80;;;3.30;;
7031;SDS011;3557;48.880;8.328;2023-09-07T12:33:37;5.63;;;3.60;;
7031;SDS011;3557;48.880;8.328;2023-09-07T12:36:04;7.07;;;3.40;;
7031;SDS011;3557;48.880;8.328;2023-09-07T12:38:34;4.57;;;3.60;;
7031;SDS011;3557;48.880;8.328;2023-09-07T12:41:01;5.32;;;3.60;;
7031;SDS011;3557;48.880;8.328;2023-09-07T12:43:30;3.63;;;3.33;;
7031;SDS011;3557;48.880;8.328;2023-09-07T12:45:58;6.57;;;3.45;;
7031;SDS011;3557;48.880;8.328;2023-09-07T12:48:26;4.10;;;3.63;;
7031;SDS011;3557;48.880;8.328;2023-09-07T12:50:53;4.47;;;3.40;;
7031;SDS011;3557;48.880;8.328;2023-09-07T12:53:21;3.75;;;3.33;;
7031;SDS011;3557;48.880;8.328;2023-09-07T12:55:50;5.43;;;3.70;;
7031;SDS011;3557;48.880;8.328;2023-09-07T12:58:23;5.05;;;3.60;;
7031;SDS011;3557;48.880;8.328;2023-09-07T13:00:51;5.55;;;3.33;;
7031;SDS011;3557;48.880;8.328;2023-09-07T13:03:19;4.22;;;3.22;;
7031;SDS011;3557;48.880;8.328;2023-09-07T13:05:46;6.22;;;3.60;;
7031;SDS011;3557;48.880;8.328;2023-09-07T13:08:14;8.75;;;3.75;;
7031;SDS011;3557;48.880;8.328;2023-09-07T13:10:41;5.22;;;3.72;;
7031;SDS011;3557;48.880;8.328;2023-09-07T13:13:08;4.80;;;3.67;;
7031;SDS011;3557;48.880;8.328;2023-09-07T13:15:36;4.80;;;3.42;;
7031;SDS011;3557;48.880;8.328;2023-09-07T13:18:05;6.78;;;3.60;;
7031;SDS011;3557;48.880;8.328;2023-09-07T13:20:32;5.60;;;3.40;;
7031;SDS011;3557;48.880;8.328;2023-09-07T13:23:00;5.10;;;3.28;;
7031;SDS011;3557;48.880;8.328;2023-09-07T13:25:27;5.50;;;3.70;;
7031;SDS011;3557;48.880;8.328;2023-09-07T13:27:54;5.00;;;3.60;;
7031;SDS011;3557;48.880;8.328;2023-09-07T13:30:22;4.90;;;3.38;;
7031;SDS011;3557;48.880;8.328;2023-09-07T13:32:49;6.43;;;3.35;;
7031;SDS011;3557;48.880;8.328;2023-09-07T13:35:19;4.93;;;3.60;;
7031;SDS011;3557;48.880;8.328;2023-09-07T13:37:46;4.47;;;3.42;;
7031;SDS011;3557;48.880;8.328;2023-09-07T13:40:14;4.93;;;3.33;;
7031;SDS011;3557;48.880;8.328;2023-09-07T13:42:43;6.22;;;3.40;;
7031;SDS011;3557;48.880;8.328;2023-09-07T13:45:10;3.78;;;3.28;;
7031;SDS011;3557;48.880;8.328;2023-09-07T13:47:38;10.70;;;3.60;;
7031;SDS011;3557;48.880;8.328;2023-09-07T13:50:06;4.88;;;3.05;;
7031;SDS011;3557;48.880;8.328;2023-09-07T13:52:35;6.55;;;3.58;;
7031;SDS011;3557;48.880;8.328;2023-09-07T13:55:02;4.10;;;3.50;;
7031;SDS011;3557;48.880;8.328;2023-09-07T13:57:31;7.05;;;3.50;;
7031;SDS011;3557;48.880;8.328;2023-09-07T13:59:59;8.32;;;3.20;;
7031;SDS011;3557;48.880;8.328;2023-09-07T14:02:29;5.65;;;3.35;;
7031;SDS011;3557;48.880;8.328;2023-09-07T14:04:57;5.22;;;3.20;;
7031;SDS011;3557;48.880;8.328;2023-09-07T14:07:25;4.15;;;3.25;;
7031;SDS011;3557;48.880;8.328;2023-09-07T14:09:53;5.03;;;3.40;;
7031;SDS011;3557;48.880;8.328;2023-09-07T14:12:21;4.90;;;3.30;;
7031;SDS011;3557;48.880;8.328;2023-09-07T14:14:48;3.38;;;3.10;;
7031;SDS011;3557;48.880;8.328;2023-09-07T14:17:16;5.22;;;3.50;;
7031;SDS011;3557;48.880;8.328;2023-09-07T14:19:43;6.18;;;3.42;;
7031;SDS011;3557;48.880;8.328;2023-09-07T14:22:11;5.47;;;3.00;;
7031;SDS011;3557;48.880;8.328;2023-09-07T14:24:39;6.07;;;3.20;;
7031;SDS011;3557;48.880;8.328;2023-09-07T14:27:07;5.18;;;3.28;;
7031;SDS011;3557;48.880;8.328;2023-09-07T14:29:35;3.35;;;3.05;;
7031;SDS011;3557;48.880;8.328;2023-09-07T14:32:02;5.88;;;3.10;;
7031;SDS011;3557;48.880;8.328;2023-09-07T14:34:30;5.20;;;3.20;;
7031;SDS011;3557;48.880;8.328;2023-09-07T14:36:58;4.13;;;3.08;;
7031;SDS011;3557;48.880;8.328;2023-09-07T14:39:27;3.17;;;2.83;;
7031;SDS011;3557;48.880;8.328;2023-09-07T14:41:54;5.10;;;3.35;;
7031;SDS011;3557;48.880;8.328;2023-09-07T14:44:25;4.45;;;2.90;;
7031;SDS011;3557;48.880;8.328;2023-09-07T14:46:52;8.05;;;3.40;;
7031;SDS011;3557;48.880;8.328;2023-09-07T14:49:20;8.70;;;3.22;;
7031;SDS011;3557;48.880;8.328;2023-09-07T14:51:47;7.80;;;6.05;;
7031;SDS011;3557;48.880;8.328;2023-09-07T14:54:14;6.35;;;2.88;;
7031;SDS011;3557;48.880;8.328;2023-09-07T14:56:43;4.65;;;2.88;;
7031;SDS011;3557;48.880;8.328;2023-09-07T14:59:10;7.75;;;3.10;;
7031;SDS011;3557;48.880;8.328;2023-09-07T15:01:38;4.30;;;2.80;;
7031;SDS011;3557;48.880;8.328;2023-09-07T15:04:06;4.50;;;3.15;;
7031;SDS011;3557;48.880;8.328;2023-09-07T15:06:33;4.35;;;3.00;;
7031;SDS011;3557;48.880;8.328;2023-09-07T15:09:02;6.10;;;3.10;;
7031;SDS011;3557;48.880;8.328;2023-09-07T15:11:30;5.15;;;3.33;;
7031;SDS011;3557;48.880;8.328;2023-09-07T15:13:57;5.63;;;3.00;;
7031;SDS011;3557;48.880;8.328;2023-09-07T15:16:25;6.40;;;3.20;;
7031;SDS011;3557;48.880;8.328;2023-09-07T15:18:53;5.78;;;3.05;;
7031;SDS011;3557;48.880;8.328;2023-09-07T15:21:21;3.85;;;2.88;;